FMSTFMSD

Guest
Details From FMST - Toliara
To FMSD - Tolagnaro
Flight Number -
Tags Generated
Created
Modified
Stats Distance 203 nm / 375 km
Max Altitude 0 ft / 0 m
Waypoints 2
Social Downloads 0
Likes 0
Share VATSIM

Download

Looking for another format? Having issues loading an existing format? Contact us
Advertisement - Login to hide

Notes

Generated

Route

FMST FMSD

ID Type Via Altitude Latitude Longitude Leg Dist Tot Dist Heading (true) Name
O FMST APT - 0 ft / 0 m -23.39136˚ 43.72490˚ - 0 nm - -
O FMSD APT - 0 ft / 0 m -25.04342˚ 46.95052˚ 202 nm 202 nm 120° / 119° -

Altitude Profile

Advertisement - Login to hide

Weather


0- 5 10 15 20 25 30 35+ Temperature / ° C

Clouds and Precipitation
Forecast for 2017-12-14 18:00 UTC. Updated 2 hours ago

Ground ~20,000 ft ~40,000 ft Winds

FMST

Details ICAO FMST (TLE)
Name TOLIARA
Region Comoros, Mayotte, Réunion and Madagascar
Timezone Indian/Antananarivo (UTC+3.0)
Stats Elevation 29 ft / 9 m (AMSL)
Location -23.387333° 43.728634°
Runways 2
Magnetic Variation 20.463° W

METAR

Not found

TAF

TAF FMST 141700Z 1418/1518 26012KT 9999 SCT020 BKN040 PROB40 TEMPO 1418/1515 4000 TSRA FEW010 BKN015CB BECMG 1512/1515 17015G25KT

Decode

Departure Runways

ID Width Length Bearing (true) Bearing (mag) Surface Threshold Offset Overrun Length
04 98 ft / 30 m 6,583 ft / 2,007 m 23.34° 43.80° Asphalt 0 ft / 0 m 100 ft / 30 m
11 42 ft / 13 m 2,624 ft / 800 m 89.07° 109.53° Asphalt 0 ft / 0 m 0 ft / 0 m
22 98 ft / 30 m 6,583 ft / 2,007 m 203.34° 223.80° Asphalt 0 ft / 0 m 100 ft / 30 m
29 42 ft / 13 m 2,624 ft / 800 m 269.07° 289.53° Asphalt 0 ft / 0 m 0 ft / 0 m

FMSD

Details ICAO FMSD (FTU)
Name TOLAGNARO
Region Comoros, Mayotte, Réunion and Madagascar
Timezone Indian/Antananarivo (UTC+3.0)
Stats Elevation 29 ft / 9 m (AMSL)
Location -25.039276° 46.956381°
Runways 1
Magnetic Variation 23.799° W

METAR

FMSD 141900Z 10012KT 8000 VCSH SCT016CB BKN033 24/24 Q1011 RERA

Decode

TAF

TAF FMSD 141700Z 1418/1518 VRB07KT 9999 FEW007 SCT017CB BKN033 PROB40 TEMPO 1418/1518 4000 TSRA BECMG 1510/1513 24015G25KT

Decode

Destination Runways

ID Width Length Bearing (true) Bearing (mag) Surface Threshold Offset Overrun Length
08 98 ft / 30 m 4,919 ft / 1,499 m 52.01° 75.81° Asphalt 0 ft / 0 m 0 ft / 0 m
26 98 ft / 30 m 4,919 ft / 1,499 m 232.01° 255.81° Asphalt 0 ft / 0 m 0 ft / 0 m

Popular Alternatives